Kithnos, Greece
Current Conditions -  °F | °C
As of 8:50 AM on Sunday 26 Oct 2014 (Local Time) from LGAV Reporting Station
Broken Clouds Broken Clouds  
Wind Chill: 57°   Ceiling: 8000
Heat Index: 57°   Visibility: 6mi
Dew Point: 50°   Wind: 8mph
Humidity: 77%   Direction: 350°N
Pressure: 30"   Gusts: NA
Location:  37.42°N, 24.43°E
Report Text: LGAV 260550Z 35007KT 9999 SCT025 BKN080 14/10 Q1016 NOSIG
Loading
Personal Weather Stations






























Interactive Weather Map New forecast layout! Learn more

10-Day Weather Forecast

Advertisements
Track Severe Weather on mobile